sensor_id;sensor_type;location;lat;lon;timestamp;pressure;altitude;pressure_sealevel;temperature;humidity
77452;BME280;66537;52.370;4.832;2023-06-14T00:01:32;101625.88;;;19.69;63.64
77452;BME280;66537;52.370;4.832;2023-06-14T00:04:00;101615.38;;;19.69;62.14
77452;BME280;66537;52.370;4.832;2023-06-14T00:06:26;101616.88;;;19.73;61.35
77452;BME280;66537;52.370;4.832;2023-06-14T00:08:53;101616.47;;;19.65;59.97
77452;BME280;66537;52.370;4.832;2023-06-14T00:11:19;101615.28;;;19.71;59.75
77452;BME280;66537;52.370;4.832;2023-06-14T00:13:44;101620.69;;;19.68;58.10
77452;BME280;66537;52.370;4.832;2023-06-14T00:16:10;101614.91;;;19.61;58.32
77452;BME280;66537;52.370;4.832;2023-06-14T00:18:36;101611.19;;;19.65;57.60
77452;BME280;66537;52.370;4.832;2023-06-14T00:21:02;101606.72;;;19.67;57.42
77452;BME280;66537;52.370;4.832;2023-06-14T00:23:29;101620.78;;;19.66;56.84
77452;BME280;66537;52.370;4.832;2023-06-14T00:25:54;101608.75;;;19.62;56.70
77452;BME280;66537;52.370;4.832;2023-06-14T00:28:20;101612.16;;;19.64;56.31
77452;BME280;66537;52.370;4.832;2023-06-14T00:30:45;101611.81;;;19.55;56.69
77452;BME280;66537;52.370;4.832;2023-06-14T00:33:11;101615.25;;;19.55;56.42
77452;BME280;66537;52.370;4.832;2023-06-14T00:35:37;101615.94;;;19.43;56.40
77452;BME280;66537;52.370;4.832;2023-06-14T00:38:02;101607.78;;;19.48;56.08
77452;BME280;66537;52.370;4.832;2023-06-14T00:40:27;101612.28;;;19.46;56.32
77452;BME280;66537;52.370;4.832;2023-06-14T00:42:53;101609.91;;;19.41;55.89
77452;BME280;66537;52.370;4.832;2023-06-14T00:45:18;101614.72;;;19.33;56.60
77452;BME280;66537;52.370;4.832;2023-06-14T00:47:45;101617.59;;;19.44;56.61
77452;BME280;66537;52.370;4.832;2023-06-14T00:50:11;101620.63;;;19.37;56.32
77452;BME280;66537;52.370;4.832;2023-06-14T00:52:38;101618.59;;;19.42;55.89
77452;BME280;66537;52.370;4.832;2023-06-14T00:55:04;101619.25;;;19.30;56.82
77452;BME280;66537;52.370;4.832;2023-06-14T00:57:30;101623.25;;;19.37;56.63
77452;BME280;66537;52.370;4.832;2023-06-14T00:59:56;101623.41;;;19.17;56.40
77452;BME280;66537;52.370;4.832;2023-06-14T01:02:21;101617.75;;;19.24;56.80
77452;BME280;66537;52.370;4.832;2023-06-14T01:04:48;101616.56;;;19.14;56.18
77452;BME280;66537;52.370;4.832;2023-06-14T01:12:47;101618.88;;;19.03;56.36
77452;BME280;66537;52.370;4.832;2023-06-14T01:15:15;101617.31;;;18.99;56.23
77452;BME280;66537;52.370;4.832;2023-06-14T01:17:41;101620.72;;;19.01;56.21
77452;BME280;66537;52.370;4.832;2023-06-14T01:20:11;101617.09;;;19.04;56.47
77452;BME280;66537;52.370;4.832;2023-06-14T01:22:50;101616.34;;;19.02;55.26
77452;BME280;66537;52.370;4.832;2023-06-14T01:25:16;101614.88;;;18.96;56.37
77452;BME280;66537;52.370;4.832;2023-06-14T01:27:42;101613.81;;;18.83;56.68
77452;BME280;66537;52.370;4.832;2023-06-14T01:30:08;101619.34;;;18.94;56.28
77452;BME280;66537;52.370;4.832;2023-06-14T01:32:35;101605.69;;;18.87;56.75
77452;BME280;66537;52.370;4.832;2023-06-14T01:35:00;101621.41;;;18.87;55.92
77452;BME280;66537;52.370;4.832;2023-06-14T01:37:26;101621.81;;;18.80;56.81
77452;BME280;66537;52.370;4.832;2023-06-14T01:39:53;101621.19;;;18.75;56.31
77452;BME280;66537;52.370;4.832;2023-06-14T01:42:18;101621.81;;;18.80;55.90
77452;BME280;66537;52.370;4.832;2023-06-14T01:44:46;101628.97;;;18.76;55.82
77452;BME280;66537;52.370;4.832;2023-06-14T01:47:14;101616.81;;;18.75;54.94
77452;BME280;66537;52.370;4.832;2023-06-14T01:49:39;101619.09;;;18.64;55.39
77452;BME280;66537;52.370;4.832;2023-06-14T01:52:05;101626.81;;;18.67;56.04
77452;BME280;66537;52.370;4.832;2023-06-14T01:54:31;101621.81;;;18.63;54.61
77452;BME280;66537;52.370;4.832;2023-06-14T01:56:57;101623.06;;;18.73;54.59
77452;BME280;66537;52.370;4.832;2023-06-14T01:59:22;101622.09;;;18.57;54.58
77452;BME280;66537;52.370;4.832;2023-06-14T02:01:47;101619.06;;;18.66;54.86
77452;BME280;66537;52.370;4.832;2023-06-14T02:04:13;101619.25;;;18.44;55.34
77452;BME280;66537;52.370;4.832;2023-06-14T02:06:38;101624.31;;;18.47;54.83
77452;BME280;66537;52.370;4.832;2023-06-14T02:09:03;101625.03;;;18.51;54.95
77452;BME280;66537;52.370;4.832;2023-06-14T02:11:29;101626.25;;;18.44;54.37
77452;BME280;66537;52.370;4.832;2023-06-14T02:13:55;101613.84;;;18.47;54.67
77452;BME280;66537;52.370;4.832;2023-06-14T02:16:20;101621.78;;;18.46;53.93
77452;BME280;66537;52.370;4.832;2023-06-14T02:18:45;101618.22;;;18.47;55.03
77452;BME280;66537;52.370;4.832;2023-06-14T02:21:11;101606.53;;;18.35;53.95
77452;BME280;66537;52.370;4.832;2023-06-14T02:23:36;101616.91;;;18.38;53.80
77452;BME280;66537;52.370;4.832;2023-06-14T02:26:02;101612.44;;;18.40;55.06
77452;BME280;66537;52.370;4.832;2023-06-14T02:28:28;101610.78;;;18.38;53.81
77452;BME280;66537;52.370;4.832;2023-06-14T02:30:53;101614.41;;;18.35;53.64
77452;BME280;66537;52.370;4.832;2023-06-14T02:33:18;101619.72;;;18.34;53.74
77452;BME280;66537;52.370;4.832;2023-06-14T02:35:44;101618.25;;;18.28;53.28
77452;BME280;66537;52.370;4.832;2023-06-14T02:38:09;101616.19;;;18.35;53.63
77452;BME280;66537;52.370;4.832;2023-06-14T02:40:35;101624.09;;;18.33;54.15
77452;BME280;66537;52.370;4.832;2023-06-14T02:43:00;101625.94;;;18.31;54.13
77452;BME280;66537;52.370;4.832;2023-06-14T02:45:27;101622.56;;;18.29;53.35
77452;BME280;66537;52.370;4.832;2023-06-14T02:47:52;101627.34;;;18.21;54.46
77452;BME280;66537;52.370;4.832;2023-06-14T02:50:17;101623.66;;;18.25;53.37
77452;BME280;66537;52.370;4.832;2023-06-14T02:52:43;101619.59;;;18.18;53.62
77452;BME280;66537;52.370;4.832;2023-06-14T02:55:10;101618.75;;;18.18;53.85
77452;BME280;66537;52.370;4.832;2023-06-14T02:57:35;101629.47;;;18.13;55.10
77452;BME280;66537;52.370;4.832;2023-06-14T03:00:00;101621.75;;;18.10;54.37
77452;BME280;66537;52.370;4.832;2023-06-14T03:02:26;101630.53;;;18.09;54.31
77452;BME280;66537;52.370;4.832;2023-06-14T03:04:51;101627.22;;;18.06;54.18
77452;BME280;66537;52.370;4.832;2023-06-14T03:07:16;101640.59;;;17.99;54.39
77452;BME280;66537;52.370;4.832;2023-06-14T03:09:45;101633.88;;;17.94;54.13
77452;BME280;66537;52.370;4.832;2023-06-14T03:12:10;101647.66;;;17.97;54.64
77452;BME280;66537;52.370;4.832;2023-06-14T03:14:36;101657.00;;;17.84;54.61
77452;BME280;66537;52.370;4.832;2023-06-14T03:17:04;101647.38;;;17.85;54.10
77452;BME280;66537;52.370;4.832;2023-06-14T03:19:30;101654.44;;;17.83;55.33
77452;BME280;66537;52.370;4.832;2023-06-14T03:21:55;101654.50;;;17.81;54.93
77452;BME280;66537;52.370;4.832;2023-06-14T03:24:24;101650.91;;;17.84;55.41
77452;BME280;66537;52.370;4.832;2023-06-14T03:26:49;101653.47;;;17.85;54.85
77452;BME280;66537;52.370;4.832;2023-06-14T03:29:14;101658.41;;;17.91;55.42
77452;BME280;66537;52.370;4.832;2023-06-14T03:31:57;101667.81;;;17.95;54.18
77452;BME280;66537;52.370;4.832;2023-06-14T03:34:23;101675.38;;;17.83;54.69
77452;BME280;66537;52.370;4.832;2023-06-14T03:36:48;101671.06;;;17.82;54.77
77452;BME280;66537;52.370;4.832;2023-06-14T03:39:14;101677.94;;;17.84;55.13
77452;BME280;66537;52.370;4.832;2023-06-14T03:41:39;101668.47;;;17.82;55.04
77452;BME280;66537;52.370;4.832;2023-06-14T03:44:05;101674.66;;;17.61;55.01
77452;BME280;66537;52.370;4.832;2023-06-14T03:46:30;101668.56;;;17.60;55.31
77452;BME280;66537;52.370;4.832;2023-06-14T03:48:56;101671.44;;;17.74;55.15
77452;BME280;66537;52.370;4.832;2023-06-14T03:51:22;101670.41;;;17.77;56.00
77452;BME280;66537;52.370;4.832;2023-06-14T03:53:47;101665.34;;;17.74;55.01
77452;BME280;66537;52.370;4.832;2023-06-14T03:56:13;101669.78;;;17.72;55.43
77452;BME280;66537;52.370;4.832;2023-06-14T03:58:38;101679.81;;;17.62;55.61
77452;BME280;66537;52.370;4.832;2023-06-14T04:01:03;101675.72;;;17.57;55.18
77452;BME280;66537;52.370;4.832;2023-06-14T04:03:29;101682.00;;;17.53;55.46
77452;BME280;66537;52.370;4.832;2023-06-14T04:05:54;101686.03;;;17.60;55.67
77452;BME280;66537;52.370;4.832;2023-06-14T04:08:21;101691.91;;;17.65;55.42
77452;BME280;66537;52.370;4.832;2023-06-14T04:10:47;101683.13;;;17.66;55.74
77452;BME280;66537;52.370;4.832;2023-06-14T04:13:12;101691.53;;;17.54;55.37
77452;BME280;66537;52.370;4.832;2023-06-14T04:15:39;101693.50;;;17.49;55.46
77452;BME280;66537;52.370;4.832;2023-06-14T04:18:08;101696.63;;;17.57;56.53
77452;BME280;66537;52.370;4.832;2023-06-14T04:20:33;101700.94;;;17.58;55.79
77452;BME280;66537;52.370;4.832;2023-06-14T04:23:11;101699.09;;;17.60;55.85
77452;BME280;66537;52.370;4.832;2023-06-14T04:25:37;101702.38;;;17.45;56.11
77452;BME280;66537;52.370;4.832;2023-06-14T04:28:03;101698.66;;;17.50;56.18
77452;BME280;66537;52.370;4.832;2023-06-14T04:30:28;101693.03;;;17.59;55.71
77452;BME280;66537;52.370;4.832;2023-06-14T04:32:57;101705.28;;;17.59;56.07
77452;BME280;66537;52.370;4.832;2023-06-14T04:35:22;101709.00;;;17.53;55.60
77452;BME280;66537;52.370;4.832;2023-06-14T04:37:49;101699.63;;;17.48;56.01
77452;BME280;66537;52.370;4.832;2023-06-14T04:40:14;101701.78;;;17.58;55.80
77452;BME280;66537;52.370;4.832;2023-06-14T04:42:40;101710.34;;;17.62;55.37
77452;BME280;66537;52.370;4.832;2023-06-14T04:45:06;101701.28;;;17.50;56.13
77452;BME280;66537;52.370;4.832;2023-06-14T04:47:32;101701.16;;;17.53;55.56
77452;BME280;66537;52.370;4.832;2023-06-14T04:49:59;101706.25;;;17.56;55.89
77452;BME280;66537;52.370;4.832;2023-06-14T04:52:25;101702.13;;;17.51;56.13
77452;BME280;66537;52.370;4.832;2023-06-14T04:54:52;101705.38;;;17.56;56.15
77452;BME280;66537;52.370;4.832;2023-06-14T04:57:19;101698.59;;;17.52;56.12
77452;BME280;66537;52.370;4.832;2023-06-14T04:59:47;101705.13;;;17.42;56.44
77452;BME280;66537;52.370;4.832;2023-06-14T05:02:12;101700.31;;;17.53;56.46
77452;BME280;66537;52.370;4.832;2023-06-14T05:04:38;101705.19;;;17.60;56.05
77452;BME280;66537;52.370;4.832;2023-06-14T05:07:06;101707.19;;;17.55;55.98
77452;BME280;66537;52.370;4.832;2023-06-14T05:09:32;101709.19;;;17.49;56.12
77452;BME280;66537;52.370;4.832;2023-06-14T05:11:58;101709.91;;;17.52;55.81
77452;BME280;66537;52.370;4.832;2023-06-14T05:14:25;101718.75;;;17.50;56.54
77452;BME280;66537;52.370;4.832;2023-06-14T05:16:51;101715.16;;;17.52;56.53
77452;BME280;66537;52.370;4.832;2023-06-14T05:19:16;101720.19;;;17.57;55.50
77452;BME280;66537;52.370;4.832;2023-06-14T05:21:43;101710.31;;;17.63;55.81
77452;BME280;66537;52.370;4.832;2023-06-14T05:24:08;101713.03;;;17.60;56.35
77452;BME280;66537;52.370;4.832;2023-06-14T05:26:34;101720.47;;;17.69;55.64
77452;BME280;66537;52.370;4.832;2023-06-14T05:29:00;101720.72;;;17.83;55.92
77452;BME280;66537;52.370;4.832;2023-06-14T05:31:26;101720.22;;;18.51;54.63
77452;BME280;66537;52.370;4.832;2023-06-14T05:33:53;101716.84;;;20.34;51.66
77452;BME280;66537;52.370;4.832;2023-06-14T05:36:19;101713.19;;;21.57;49.08
77452;BME280;66537;52.370;4.832;2023-06-14T05:38:46;101723.16;;;22.36;46.67
77452;BME280;66537;52.370;4.832;2023-06-14T05:41:12;101717.38;;;22.44;46.09
77452;BME280;66537;52.370;4.832;2023-06-14T05:43:37;101712.59;;;23.29;44.94
77452;BME280;66537;52.370;4.832;2023-06-14T05:46:03;101715.31;;;23.42;44.19
77452;BME280;66537;52.370;4.832;2023-06-14T05:48:29;101715.19;;;23.43;43.87
77452;BME280;66537;52.370;4.832;2023-06-14T05:50:55;101728.28;;;23.70;44.15
77452;BME280;66537;52.370;4.832;2023-06-14T05:53:21;101725.78;;;23.81;44.03
77452;BME280;66537;52.370;4.832;2023-06-14T05:55:46;101723.47;;;24.61;42.47
77452;BME280;66537;52.370;4.832;2023-06-14T05:58:11;101736.50;;;25.23;42.16
77452;BME280;66537;52.370;4.832;2023-06-14T06:00:38;101732.16;;;24.63;42.72
77452;BME280;66537;52.370;4.832;2023-06-14T06:03:04;101738.44;;;24.50;42.79
77452;BME280;66537;52.370;4.832;2023-06-14T06:05:30;101743.84;;;25.19;41.81
77452;BME280;66537;52.370;4.832;2023-06-14T06:07:55;101738.56;;;25.65;40.74
77452;BME280;66537;52.370;4.832;2023-06-14T06:10:21;101739.78;;;25.83;41.05
77452;BME280;66537;52.370;4.832;2023-06-14T06:12:46;101737.41;;;26.13;40.33
77452;BME280;66537;52.370;4.832;2023-06-14T06:15:13;101737.88;;;26.18;40.10
77452;BME280;66537;52.370;4.832;2023-06-14T06:17:39;101741.63;;;26.16;40.10
77452;BME280;66537;52.370;4.832;2023-06-14T06:20:06;101738.09;;;26.37;39.71
77452;BME280;66537;52.370;4.832;2023-06-14T06:22:34;101742.00;;;26.22;39.34
77452;BME280;66537;52.370;4.832;2023-06-14T06:24:59;101738.72;;;25.74;40.75
77452;BME280;66537;52.370;4.832;2023-06-14T06:27:25;101749.72;;;26.14;40.71
77452;BME280;66537;52.370;4.832;2023-06-14T06:29:50;101745.31;;;26.46;39.91
77452;BME280;66537;52.370;4.832;2023-06-14T06:32:17;101746.47;;;26.64;39.79
77452;BME280;66537;52.370;4.832;2023-06-14T06:34:42;101747.63;;;27.14;39.50
77452;BME280;66537;52.370;4.832;2023-06-14T06:37:08;101750.28;;;27.14;38.74
77452;BME280;66537;52.370;4.832;2023-06-14T06:39:33;101755.69;;;27.24;38.75
77452;BME280;66537;52.370;4.832;2023-06-14T06:41:58;101752.00;;;27.77;37.86
77452;BME280;66537;52.370;4.832;2023-06-14T06:44:24;101761.44;;;27.91;37.96
77452;BME280;66537;52.370;4.832;2023-06-14T06:46:49;101753.78;;;26.94;39.08
77452;BME280;66537;52.370;4.832;2023-06-14T06:49:14;101761.25;;;27.21;38.37
77452;BME280;66537;52.370;4.832;2023-06-14T06:51:43;101759.81;;;27.48;38.10
77452;BME280;66537;52.370;4.832;2023-06-14T06:54:10;101764.78;;;27.83;37.39
77452;BME280;66537;52.370;4.832;2023-06-14T06:56:36;101766.88;;;28.10;37.14
77452;BME280;66537;52.370;4.832;2023-06-14T06:59:01;101760.69;;;27.17;37.89
77452;BME280;66537;52.370;4.832;2023-06-14T07:01:27;101769.66;;;27.99;37.01
77452;BME280;66537;52.370;4.832;2023-06-14T07:03:54;101765.66;;;27.93;37.35
77452;BME280;66537;52.370;4.832;2023-06-14T07:06:20;101771.25;;;27.90;36.82
77452;BME280;66537;52.370;4.832;2023-06-14T07:08:45;101775.31;;;28.55;36.74
77452;BME280;66537;52.370;4.832;2023-06-14T07:11:13;101778.97;;;28.63;36.28
77452;BME280;66537;52.370;4.832;2023-06-14T07:13:39;101781.28;;;28.47;36.46
77452;BME280;66537;52.370;4.832;2023-06-14T07:16:04;101782.56;;;29.21;35.90
77452;BME280;66537;52.370;4.832;2023-06-14T07:18:29;101779.59;;;29.14;35.73
77452;BME280;66537;52.370;4.832;2023-06-14T07:20:56;101786.75;;;29.14;35.18
77452;BME280;66537;52.370;4.832;2023-06-14T07:23:22;101796.97;;;28.99;35.60
77452;BME280;66537;52.370;4.832;2023-06-14T07:25:48;101783.66;;;28.50;36.34
77452;BME280;66537;52.370;4.832;2023-06-14T07:28:13;101794.34;;;28.10;36.48
77452;BME280;66537;52.370;4.832;2023-06-14T07:30:39;101801.03;;;27.63;36.55
77452;BME280;66537;52.370;4.832;2023-06-14T07:33:05;101796.09;;;28.80;36.01
77452;BME280;66537;52.370;4.832;2023-06-14T07:35:30;101795.66;;;28.84;36.43
77452;BME280;66537;52.370;4.832;2023-06-14T07:37:56;101805.41;;;29.71;35.08
77452;BME280;66537;52.370;4.832;2023-06-14T07:40:21;101797.97;;;29.17;35.18
77452;BME280;66537;52.370;4.832;2023-06-14T07:42:47;101812.97;;;28.50;35.67
77452;BME280;66537;52.370;4.832;2023-06-14T07:45:13;101800.63;;;29.46;34.73
77452;BME280;66537;52.370;4.832;2023-06-14T07:47:39;101800.06;;;29.71;34.98
77452;BME280;66537;52.370;4.832;2023-06-14T07:50:05;101796.56;;;29.13;35.52
77452;BME280;66537;52.370;4.832;2023-06-14T07:52:30;101799.31;;;28.83;36.07
77452;BME280;66537;52.370;4.832;2023-06-14T07:54:56;101802.03;;;29.31;36.11
77452;BME280;66537;52.370;4.832;2023-06-14T07:57:22;101810.47;;;29.36;35.13
77452;BME280;66537;52.370;4.832;2023-06-14T07:59:47;101803.84;;;29.50;34.59
77452;BME280;66537;52.370;4.832;2023-06-14T08:02:12;101804.56;;;29.52;34.23
77452;BME280;66537;52.370;4.832;2023-06-14T08:04:38;101810.09;;;29.87;34.48
77452;BME280;66537;52.370;4.832;2023-06-14T08:07:04;101810.16;;;30.14;34.34
77452;BME280;66537;52.370;4.832;2023-06-14T08:09:30;101802.78;;;29.89;33.54
77452;BME280;66537;52.370;4.832;2023-06-14T08:11:56;101804.97;;;29.37;34.06
77452;BME280;66537;52.370;4.832;2023-06-14T08:14:21;101808.88;;;29.53;34.08
77452;BME280;66537;52.370;4.832;2023-06-14T08:16:47;101806.13;;;30.47;33.58
77452;BME280;66537;52.370;4.832;2023-06-14T08:19:12;101814.94;;;29.35;33.81
77452;BME280;66537;52.370;4.832;2023-06-14T08:21:38;101814.88;;;30.30;32.46
77452;BME280;66537;52.370;4.832;2023-06-14T08:24:03;101821.19;;;31.10;32.08
77452;BME280;66537;52.370;4.832;2023-06-14T08:26:29;101814.38;;;30.16;32.11
77452;BME280;66537;52.370;4.832;2023-06-14T08:28:55;101820.03;;;30.04;32.41
77452;BME280;66537;52.370;4.832;2023-06-14T08:31:21;101814.50;;;29.59;32.81
77452;BME280;66537;52.370;4.832;2023-06-14T08:33:46;101811.94;;;30.33;32.58
77452;BME280;66537;52.370;4.832;2023-06-14T08:36:12;101808.22;;;30.06;32.78
77452;BME280;66537;52.370;4.832;2023-06-14T08:38:38;101813.91;;;30.85;31.57
77452;BME280;66537;52.370;4.832;2023-06-14T08:41:05;101814.25;;;30.45;32.09
77452;BME280;66537;52.370;4.832;2023-06-14T08:43:32;101811.41;;;29.45;32.91
77452;BME280;66537;52.370;4.832;2023-06-14T08:46:03;101812.31;;;30.65;32.46
77452;BME280;66537;52.370;4.832;2023-06-14T08:48:29;101810.78;;;31.07;32.06
77452;BME280;66537;52.370;4.832;2023-06-14T08:51:00;101807.41;;;31.58;30.73
77452;BME280;66537;52.370;4.832;2023-06-14T08:53:31;101806.34;;;31.16;30.32
77452;BME280;66537;52.370;4.832;2023-06-14T08:55:58;101813.94;;;31.02;30.57
77452;BME280;66537;52.370;4.832;2023-06-14T08:58:29;101806.56;;;30.42;31.57
77452;BME280;66537;52.370;4.832;2023-06-14T09:00:57;101813.84;;;30.67;31.63
77452;BME280;66537;52.370;4.832;2023-06-14T09:03:23;101811.41;;;30.29;31.98
77452;BME280;66537;52.370;4.832;2023-06-14T09:05:56;101814.09;;;31.01;31.36
77452;BME280;66537;52.370;4.832;2023-06-14T09:08:21;101819.97;;;31.22;31.13
77452;BME280;66537;52.370;4.832;2023-06-14T09:10:48;101819.63;;;30.63;31.12
77452;BME280;66537;52.370;4.832;2023-06-14T09:13:13;101822.84;;;30.49;31.48
77452;BME280;66537;52.370;4.832;2023-06-14T09:15:39;101818.28;;;30.22;30.93
77452;BME280;66537;52.370;4.832;2023-06-14T09:18:05;101822.72;;;30.68;30.70
77452;BME280;66537;52.370;4.832;2023-06-14T09:20:32;101826.41;;;30.30;30.91
77452;BME280;66537;52.370;4.832;2023-06-14T09:22:58;101814.91;;;29.74;31.67
77452;BME280;66537;52.370;4.832;2023-06-14T09:25:23;101824.06;;;29.71;32.41
77452;BME280;66537;52.370;4.832;2023-06-14T09:27:51;101817.28;;;30.23;31.70
77452;BME280;66537;52.370;4.832;2023-06-14T09:30:20;101820.53;;;30.54;31.58
77452;BME280;66537;52.370;4.832;2023-06-14T09:32:45;101823.91;;;30.56;31.27
77452;BME280;66537;52.370;4.832;2023-06-14T09:35:11;101825.38;;;30.04;31.07
77452;BME280;66537;52.370;4.832;2023-06-14T09:37:36;101823.34;;;29.60;31.02
77452;BME280;66537;52.370;4.832;2023-06-14T09:40:05;101827.56;;;29.33;31.91
77452;BME280;66537;52.370;4.832;2023-06-14T09:42:32;101816.06;;;29.42;31.81
77452;BME280;66537;52.370;4.832;2023-06-14T09:45:01;101831.91;;;29.63;32.52
77452;BME280;66537;52.370;4.832;2023-06-14T09:47:27;101822.63;;;29.10;32.47
77452;BME280;66537;52.370;4.832;2023-06-14T09:49:52;101826.88;;;29.22;32.41
77452;BME280;66537;52.370;4.832;2023-06-14T09:52:22;101825.63;;;28.27;32.39
77452;BME280;66537;52.370;4.832;2023-06-14T09:54:52;101820.75;;;28.63;32.67
77452;BME280;66537;52.370;4.832;2023-06-14T09:57:22;101825.41;;;28.80;33.15
77452;BME280;66537;52.370;4.832;2023-06-14T09:59:53;101820.56;;;27.94;33.18
77452;BME280;66537;52.370;4.832;2023-06-14T10:02:29;101824.00;;;27.85;33.48
77452;BME280;66537;52.370;4.832;2023-06-14T10:05:09;101830.06;;;27.76;33.16
77452;BME280;66537;52.370;4.832;2023-06-14T10:07:48;101832.03;;;27.74;33.80
77452;BME280;66537;52.370;4.832;2023-06-14T10:10:16;101823.53;;;27.80;33.10
77452;BME280;66537;52.370;4.832;2023-06-14T10:12:42;101825.97;;;28.13;33.73
77452;BME280;66537;52.370;4.832;2023-06-14T10:15:15;101840.84;;;28.16;33.75
77452;BME280;66537;52.370;4.832;2023-06-14T10:17:47;101826.41;;;27.67;33.53
77452;BME280;66537;52.370;4.832;2023-06-14T10:20:26;101836.56;;;27.42;34.65
77452;BME280;66537;52.370;4.832;2023-06-14T10:23:17;101825.47;;;27.57;34.38
77452;BME280;66537;52.370;4.832;2023-06-14T10:25:44;101828.63;;;27.31;34.33
77452;BME280;66537;52.370;4.832;2023-06-14T10:30:37;101830.88;;;27.04;34.30
77452;BME280;66537;52.370;4.832;2023-06-14T10:33:04;101832.19;;;27.09;33.95
77452;BME280;66537;52.370;4.832;2023-06-14T10:35:31;101823.50;;;27.07;34.41
77452;BME280;66537;52.370;4.832;2023-06-14T10:38:06;101823.00;;;27.45;34.58
77452;BME280;66537;52.370;4.832;2023-06-14T10:40:33;101822.19;;;27.44;34.22
77452;BME280;66537;52.370;4.832;2023-06-14T10:42:59;101828.53;;;27.53;34.56
77452;BME280;66537;52.370;4.832;2023-06-14T10:45:25;101828.72;;;27.40;34.68
77452;BME280;66537;52.370;4.832;2023-06-14T10:47:50;101829.72;;;27.60;35.21
77452;BME280;66537;52.370;4.832;2023-06-14T10:50:27;101833.63;;;27.86;34.79
77452;BME280;66537;52.370;4.832;2023-06-14T10:52:53;101838.97;;;27.86;34.29
77452;BME280;66537;52.370;4.832;2023-06-14T10:55:19;101833.44;;;27.78;34.32
77452;BME280;66537;52.370;4.832;2023-06-14T10:57:46;101833.03;;;27.41;34.70
77452;BME280;66537;52.370;4.832;2023-06-14T11:00:13;101838.13;;;27.44;34.29
77452;BME280;66537;52.370;4.832;2023-06-14T11:05:30;101837.41;;;27.42;34.54
77452;BME280;66537;52.370;4.832;2023-06-14T11:11:00;101832.03;;;27.53;34.73
77452;BME280;66537;52.370;4.832;2023-06-14T11:13:26;101837.63;;;27.50;34.76
77452;BME280;66537;52.370;4.832;2023-06-14T11:15:51;101836.19;;;27.67;34.80
77452;BME280;66537;52.370;4.832;2023-06-14T11:18:21;101833.63;;;28.07;34.52
77452;BME280;66537;52.370;4.832;2023-06-14T11:20:49;101826.97;;;28.12;33.66
77452;BME280;66537;52.370;4.832;2023-06-14T11:23:15;101834.25;;;28.10;33.88
77452;BME280;66537;52.370;4.832;2023-06-14T11:25:40;101824.56;;;27.47;34.55
77452;BME280;66537;52.370;4.832;2023-06-14T11:28:06;101833.91;;;27.83;36.01
77452;BME280;66537;52.370;4.832;2023-06-14T11:30:32;101837.78;;;27.38;34.12
77452;BME280;66537;52.370;4.832;2023-06-14T11:32:57;101832.47;;;26.95;35.49
77452;BME280;66537;52.370;4.832;2023-06-14T11:35:23;101822.09;;;26.92;35.45
77452;BME280;66537;52.370;4.832;2023-06-14T11:37:52;101814.91;;;27.15;35.65
77452;BME280;66537;52.370;4.832;2023-06-14T11:40:18;101816.38;;;27.39;36.16
77452;BME280;66537;52.370;4.832;2023-06-14T11:42:43;101810.66;;;27.23;36.51
77452;BME280;66537;52.370;4.832;2023-06-14T11:45:10;101820.16;;;27.26;37.51
77452;BME280;66537;52.370;4.832;2023-06-14T11:47:37;101822.38;;;27.21;35.82
77452;BME280;66537;52.370;4.832;2023-06-14T11:50:04;101823.44;;;27.18;35.55
77452;BME280;66537;52.370;4.832;2023-06-14T11:52:31;101816.47;;;27.17;35.71
77452;BME280;66537;52.370;4.832;2023-06-14T11:54:56;101809.44;;;27.27;35.78
77452;BME280;66537;52.370;4.832;2023-06-14T11:57:23;101819.22;;;26.84;34.75
77452;BME280;66537;52.370;4.832;2023-06-14T11:59:49;101823.72;;;26.61;35.43
77452;BME280;66537;52.370;4.832;2023-06-14T12:02:15;101824.66;;;26.71;35.40
77452;BME280;66537;52.370;4.832;2023-06-14T12:04:42;101829.25;;;26.58;35.62
77452;BME280;66537;52.370;4.832;2023-06-14T12:07:11;101817.16;;;26.88;35.80
77452;BME280;66537;52.370;4.832;2023-06-14T12:12:25;101833.34;;;26.40;35.87
77452;BME280;66537;52.370;4.832;2023-06-14T12:14:51;101819.63;;;26.35;35.40
77452;BME280;66537;52.370;4.832;2023-06-14T12:17:18;101818.41;;;26.06;35.48
77452;BME280;66537;52.370;4.832;2023-06-14T12:19:44;101806.84;;;26.18;35.84
77452;BME280;66537;52.370;4.832;2023-06-14T12:22:12;101836.41;;;26.36;35.19
77452;BME280;66537;52.370;4.832;2023-06-14T12:24:37;101825.78;;;26.14;36.28
77452;BME280;66537;52.370;4.832;2023-06-14T12:27:04;101823.72;;;26.39;36.48
77452;BME280;66537;52.370;4.832;2023-06-14T12:29:31;101828.28;;;26.15;36.56
77452;BME280;66537;52.370;4.832;2023-06-14T12:31:56;101811.09;;;26.21;37.01
77452;BME280;66537;52.370;4.832;2023-06-14T12:34:25;101817.34;;;26.09;36.51
77452;BME280;66537;52.370;4.832;2023-06-14T12:36:52;101825.41;;;26.18;36.33
77452;BME280;66537;52.370;4.832;2023-06-14T12:39:19;101814.56;;;26.10;36.66
77452;BME280;66537;52.370;4.832;2023-06-14T12:41:44;101826.72;;;26.35;36.08
77452;BME280;66537;52.370;4.832;2023-06-14T12:44:12;101827.22;;;26.07;36.27
77452;BME280;66537;52.370;4.832;2023-06-14T12:46:38;101821.22;;;25.70;36.39
77452;BME280;66537;52.370;4.832;2023-06-14T12:49:10;101819.28;;;25.61;38.07
77452;BME280;66537;52.370;4.832;2023-06-14T12:51:39;101828.00;;;25.39;37.60
77452;BME280;66537;52.370;4.832;2023-06-14T12:54:05;101816.50;;;25.62;38.19
77452;BME280;66537;52.370;4.832;2023-06-14T12:56:31;101823.72;;;26.06;38.25
77452;BME280;66537;52.370;4.832;2023-06-14T12:58:57;101828.25;;;26.04;37.50
77452;BME280;66537;52.370;4.832;2023-06-14T13:01:22;101822.31;;;25.78;36.97
77452;BME280;66537;52.370;4.832;2023-06-14T13:03:48;101826.25;;;26.30;37.44